sensor_id;sensor_type;location;lat;lon;timestamp;P1;durP1;ratioP1;P2;durP2;ratioP2
12332;SDS011;6232;48.094;11.288;2023-02-01T00:01:43;4.30;;;3.00;;
12332;SDS011;6232;48.094;11.288;2023-02-01T00:04:29;3.37;;;3.07;;
12332;SDS011;6232;48.094;11.288;2023-02-01T00:07:14;3.70;;;3.40;;
12332;SDS011;6232;48.094;11.288;2023-02-01T00:10:00;3.50;;;3.00;;
12332;SDS011;6232;48.094;11.288;2023-02-01T00:12:45;4.70;;;4.07;;
12332;SDS011;6232;48.094;11.288;2023-02-01T00:15:31;4.10;;;3.10;;
12332;SDS011;6232;48.094;11.288;2023-02-01T00:18:18;7.33;;;3.53;;
12332;SDS011;6232;48.094;11.288;2023-02-01T00:21:04;5.10;;;3.73;;
12332;SDS011;6232;48.094;11.288;2023-02-01T00:23:49;5.67;;;4.00;;
12332;SDS011;6232;48.094;11.288;2023-02-01T00:26:36;7.80;;;3.83;;
12332;SDS011;6232;48.094;11.288;2023-02-01T00:29:21;5.03;;;3.67;;
12332;SDS011;6232;48.094;11.288;2023-02-01T00:32:07;5.60;;;4.00;;
12332;SDS011;6232;48.094;11.288;2023-02-01T00:34:53;5.47;;;3.33;;
12332;SDS011;6232;48.094;11.288;2023-02-01T00:37:38;4.87;;;3.67;;
12332;SDS011;6232;48.094;11.288;2023-02-01T00:40:24;4.60;;;4.20;;
12332;SDS011;6232;48.094;11.288;2023-02-01T00:43:09;6.50;;;4.43;;
12332;SDS011;6232;48.094;11.288;2023-02-01T00:45:55;5.00;;;3.90;;
12332;SDS011;6232;48.094;11.288;2023-02-01T00:48:41;8.70;;;4.70;;
12332;SDS011;6232;48.094;11.288;2023-02-01T00:51:27;5.77;;;4.30;;
12332;SDS011;6232;48.094;11.288;2023-02-01T00:54:13;3.93;;;3.53;;
12332;SDS011;6232;48.094;11.288;2023-02-01T00:56:58;5.20;;;4.27;;
12332;SDS011;6232;48.094;11.288;2023-02-01T00:59:44;6.67;;;4.20;;
12332;SDS011;6232;48.094;11.288;2023-02-01T01:02:29;5.27;;;3.57;;
12332;SDS011;6232;48.094;11.288;2023-02-01T01:05:15;4.50;;;4.07;;
12332;SDS011;6232;48.094;11.288;2023-02-01T01:08:00;5.90;;;4.27;;
12332;SDS011;6232;48.094;11.288;2023-02-01T01:10:46;5.17;;;3.80;;
12332;SDS011;6232;48.094;11.288;2023-02-01T01:13:32;4.10;;;3.77;;
12332;SDS011;6232;48.094;11.288;2023-02-01T01:16:18;5.70;;;4.53;;
12332;SDS011;6232;48.094;11.288;2023-02-01T01:19:03;6.33;;;3.57;;
12332;SDS011;6232;48.094;11.288;2023-02-01T01:21:50;6.87;;;4.53;;
12332;SDS011;6232;48.094;11.288;2023-02-01T01:24:35;4.53;;;3.73;;
12332;SDS011;6232;48.094;11.288;2023-02-01T01:27:21;7.10;;;4.70;;
12332;SDS011;6232;48.094;11.288;2023-02-01T01:30:09;8.50;;;5.83;;
12332;SDS011;6232;48.094;11.288;2023-02-01T01:32:55;6.57;;;5.70;;
12332;SDS011;6232;48.094;11.288;2023-02-01T01:35:40;6.60;;;4.47;;
12332;SDS011;6232;48.094;11.288;2023-02-01T01:38:26;8.80;;;5.67;;
12332;SDS011;6232;48.094;11.288;2023-02-01T01:41:16;7.03;;;4.50;;
12332;SDS011;6232;48.094;11.288;2023-02-01T01:46:47;4.93;;;4.17;;
12332;SDS011;6232;48.094;11.288;2023-02-01T01:49:33;8.37;;;6.13;;
12332;SDS011;6232;48.094;11.288;2023-02-01T01:52:18;11.13;;;6.87;;
12332;SDS011;6232;48.094;11.288;2023-02-01T01:55:04;8.27;;;5.20;;
12332;SDS011;6232;48.094;11.288;2023-02-01T01:57:52;10.30;;;5.87;;
12332;SDS011;6232;48.094;11.288;2023-02-01T02:00:39;8.30;;;6.03;;
12332;SDS011;6232;48.094;11.288;2023-02-01T02:03:26;8.40;;;5.70;;
12332;SDS011;6232;48.094;11.288;2023-02-01T02:09:17;9.77;;;6.03;;
12332;SDS011;6232;48.094;11.288;2023-02-01T02:12:03;9.63;;;6.57;;
12332;SDS011;6232;48.094;11.288;2023-02-01T02:14:48;7.10;;;5.33;;
12332;SDS011;6232;48.094;11.288;2023-02-01T02:29:17;14.47;;;5.70;;
12332;SDS011;6232;48.094;11.288;2023-02-01T02:38:05;6.50;;;5.20;;
12332;SDS011;6232;48.094;11.288;2023-02-01T02:41:10;8.57;;;5.63;;
12332;SDS011;6232;48.094;11.288;2023-02-01T02:44:21;14.33;;;6.60;;
12332;SDS011;6232;48.094;11.288;2023-02-01T02:47:29;6.00;;;4.47;;
12332;SDS011;6232;48.094;11.288;2023-02-01T02:54:28;7.87;;;5.40;;
12332;SDS011;6232;48.094;11.288;2023-02-01T02:57:06;4.67;;;4.17;;
12332;SDS011;6232;48.094;11.288;2023-02-01T03:00:14;7.70;;;4.67;;
12332;SDS011;6232;48.094;11.288;2023-02-01T03:03:19;6.83;;;4.73;;
12332;SDS011;6232;48.094;11.288;2023-02-01T03:06:23;6.77;;;5.27;;
12332;SDS011;6232;48.094;11.288;2023-02-01T03:09:20;6.77;;;5.30;;
12332;SDS011;6232;48.094;11.288;2023-02-01T03:12:08;5.77;;;4.93;;
12332;SDS011;6232;48.094;11.288;2023-02-01T03:15:15;9.53;;;5.50;;
12332;SDS011;6232;48.094;11.288;2023-02-01T03:18:01;12.60;;;5.07;;
12332;SDS011;6232;48.094;11.288;2023-02-01T03:20:49;11.40;;;4.87;;
12332;SDS011;6232;48.094;11.288;2023-02-01T03:23:36;6.13;;;5.40;;
12332;SDS011;6232;48.094;11.288;2023-02-01T03:26:23;6.90;;;4.83;;
12332;SDS011;6232;48.094;11.288;2023-02-01T03:29:13;5.63;;;5.03;;
12332;SDS011;6232;48.094;11.288;2023-02-01T03:31:59;6.77;;;5.63;;
12332;SDS011;6232;48.094;11.288;2023-02-01T03:34:45;5.83;;;4.00;;
12332;SDS011;6232;48.094;11.288;2023-02-01T03:37:30;5.83;;;4.70;;
12332;SDS011;6232;48.094;11.288;2023-02-01T03:40:16;10.70;;;4.17;;
12332;SDS011;6232;48.094;11.288;2023-02-01T03:43:04;6.27;;;5.63;;
12332;SDS011;6232;48.094;11.288;2023-02-01T03:45:52;5.40;;;4.10;;
12332;SDS011;6232;48.094;11.288;2023-02-01T03:48:39;6.80;;;4.90;;
12332;SDS011;6232;48.094;11.288;2023-02-01T03:51:25;5.30;;;4.80;;
12332;SDS011;6232;48.094;11.288;2023-02-01T03:54:12;8.27;;;5.17;;
12332;SDS011;6232;48.094;11.288;2023-02-01T03:56:59;7.70;;;5.07;;
12332;SDS011;6232;48.094;11.288;2023-02-01T03:59:47;7.03;;;4.20;;
12332;SDS011;6232;48.094;11.288;2023-02-01T04:02:33;5.90;;;4.93;;
12332;SDS011;6232;48.094;11.288;2023-02-01T04:05:19;7.23;;;5.37;;
12332;SDS011;6232;48.094;11.288;2023-02-01T04:08:05;5.97;;;4.07;;
12332;SDS011;6232;48.094;11.288;2023-02-01T04:10:50;7.13;;;5.50;;
12332;SDS011;6232;48.094;11.288;2023-02-01T04:13:36;7.93;;;5.23;;
12332;SDS011;6232;48.094;11.288;2023-02-01T04:16:21;5.70;;;4.63;;
12332;SDS011;6232;48.094;11.288;2023-02-01T04:19:07;4.97;;;4.57;;
12332;SDS011;6232;48.094;11.288;2023-02-01T04:21:53;7.60;;;5.93;;
12332;SDS011;6232;48.094;11.288;2023-02-01T04:24:38;8.60;;;5.80;;
12332;SDS011;6232;48.094;11.288;2023-02-01T04:27:24;5.17;;;4.67;;
12332;SDS011;6232;48.094;11.288;2023-02-01T04:30:10;8.17;;;5.77;;
12332;SDS011;6232;48.094;11.288;2023-02-01T04:32:56;9.33;;;6.20;;
12332;SDS011;6232;48.094;11.288;2023-02-01T04:35:41;6.53;;;5.20;;
12332;SDS011;6232;48.094;11.288;2023-02-01T04:38:27;5.53;;;5.03;;
12332;SDS011;6232;48.094;11.288;2023-02-01T04:41:14;7.13;;;5.10;;
12332;SDS011;6232;48.094;11.288;2023-02-01T04:44:03;7.40;;;5.70;;
12332;SDS011;6232;48.094;11.288;2023-02-01T04:46:49;6.47;;;5.07;;
12332;SDS011;6232;48.094;11.288;2023-02-01T04:49:35;7.07;;;5.50;;
12332;SDS011;6232;48.094;11.288;2023-02-01T04:52:20;7.23;;;5.40;;
12332;SDS011;6232;48.094;11.288;2023-02-01T04:55:06;5.00;;;4.50;;
12332;SDS011;6232;48.094;11.288;2023-02-01T04:57:52;9.50;;;6.20;;
12332;SDS011;6232;48.094;11.288;2023-02-01T05:00:37;8.13;;;5.70;;
12332;SDS011;6232;48.094;11.288;2023-02-01T05:03:23;6.10;;;4.90;;
12332;SDS011;6232;48.094;11.288;2023-02-01T05:06:08;9.20;;;5.50;;
12332;SDS011;6232;48.094;11.288;2023-02-01T05:08:54;8.30;;;5.43;;
12332;SDS011;6232;48.094;11.288;2023-02-01T05:11:39;6.00;;;4.80;;
12332;SDS011;6232;48.094;11.288;2023-02-01T05:14:44;5.00;;;4.27;;
12332;SDS011;6232;48.094;11.288;2023-02-01T05:17:29;6.23;;;5.10;;
12332;SDS011;6232;48.094;11.288;2023-02-01T05:20:15;5.60;;;5.00;;
12332;SDS011;6232;48.094;11.288;2023-02-01T05:23:00;5.73;;;5.13;;
12332;SDS011;6232;48.094;11.288;2023-02-01T05:25:46;5.70;;;4.90;;
12332;SDS011;6232;48.094;11.288;2023-02-01T05:28:32;11.73;;;5.90;;
12332;SDS011;6232;48.094;11.288;2023-02-01T05:31:17;6.97;;;5.30;;
12332;SDS011;6232;48.094;11.288;2023-02-01T05:34:03;7.67;;;5.17;;
12332;SDS011;6232;48.094;11.288;2023-02-01T05:36:48;8.47;;;6.27;;
12332;SDS011;6232;48.094;11.288;2023-02-01T05:39:34;7.33;;;6.30;;
12332;SDS011;6232;48.094;11.288;2023-02-01T05:42:20;7.73;;;4.67;;
12332;SDS011;6232;48.094;11.288;2023-02-01T05:45:05;5.87;;;5.20;;
12332;SDS011;6232;48.094;11.288;2023-02-01T05:47:52;6.80;;;4.97;;
12332;SDS011;6232;48.094;11.288;2023-02-01T05:50:38;7.20;;;4.87;;
12332;SDS011;6232;48.094;11.288;2023-02-01T05:53:24;5.30;;;3.80;;
12332;SDS011;6232;48.094;11.288;2023-02-01T05:56:09;8.40;;;5.63;;
12332;SDS011;6232;48.094;11.288;2023-02-01T05:58:55;7.27;;;5.43;;
12332;SDS011;6232;48.094;11.288;2023-02-01T06:01:40;5.70;;;4.77;;
12332;SDS011;6232;48.094;11.288;2023-02-01T06:04:26;7.27;;;5.47;;
12332;SDS011;6232;48.094;11.288;2023-02-01T06:07:11;7.60;;;5.43;;
12332;SDS011;6232;48.094;11.288;2023-02-01T06:09:57;7.97;;;6.00;;
12332;SDS011;6232;48.094;11.288;2023-02-01T06:12:43;5.60;;;3.70;;
12332;SDS011;6232;48.094;11.288;2023-02-01T06:15:30;10.53;;;5.70;;
12332;SDS011;6232;48.094;11.288;2023-02-01T06:18:15;7.60;;;5.77;;
12332;SDS011;6232;48.094;11.288;2023-02-01T06:21:01;9.80;;;6.07;;
12332;SDS011;6232;48.094;11.288;2023-02-01T06:23:47;6.70;;;4.90;;
12332;SDS011;6232;48.094;11.288;2023-02-01T06:26:32;7.50;;;5.67;;
12332;SDS011;6232;48.094;11.288;2023-02-01T06:29:18;9.77;;;5.63;;
12332;SDS011;6232;48.094;11.288;2023-02-01T06:32:04;10.23;;;7.10;;
12332;SDS011;6232;48.094;11.288;2023-02-01T06:34:49;6.57;;;5.13;;
12332;SDS011;6232;48.094;11.288;2023-02-01T06:37:36;9.77;;;5.10;;
12332;SDS011;6232;48.094;11.288;2023-02-01T06:40:22;5.93;;;5.17;;
12332;SDS011;6232;48.094;11.288;2023-02-01T06:43:07;7.07;;;5.23;;
12332;SDS011;6232;48.094;11.288;2023-02-01T06:45:53;7.07;;;4.90;;
12332;SDS011;6232;48.094;11.288;2023-02-01T06:48:39;8.03;;;5.67;;
12332;SDS011;6232;48.094;11.288;2023-02-01T06:51:25;4.97;;;4.07;;
12332;SDS011;6232;48.094;11.288;2023-02-01T06:54:11;6.37;;;4.60;;
12332;SDS011;6232;48.094;11.288;2023-02-01T06:56:57;6.10;;;4.13;;
12332;SDS011;6232;48.094;11.288;2023-02-01T06:59:43;5.37;;;4.47;;
12332;SDS011;6232;48.094;11.288;2023-02-01T07:02:32;5.93;;;4.87;;
12332;SDS011;6232;48.094;11.288;2023-02-01T07:05:17;5.23;;;4.30;;
12332;SDS011;6232;48.094;11.288;2023-02-01T07:08:03;6.33;;;4.80;;
12332;SDS011;6232;48.094;11.288;2023-02-01T07:10:48;5.37;;;4.40;;
12332;SDS011;6232;48.094;11.288;2023-02-01T07:13:34;7.07;;;4.60;;
12332;SDS011;6232;48.094;11.288;2023-02-01T07:16:20;5.30;;;3.97;;
12332;SDS011;6232;48.094;11.288;2023-02-01T07:19:05;4.07;;;3.70;;
12332;SDS011;6232;48.094;11.288;2023-02-01T07:21:51;5.70;;;3.70;;
12332;SDS011;6232;48.094;11.288;2023-02-01T07:24:36;5.37;;;4.50;;
12332;SDS011;6232;48.094;11.288;2023-02-01T07:27:22;3.50;;;3.00;;
12332;SDS011;6232;48.094;11.288;2023-02-01T07:30:10;4.57;;;3.83;;
12332;SDS011;6232;48.094;11.288;2023-02-01T07:32:56;9.43;;;3.90;;
12332;SDS011;6232;48.094;11.288;2023-02-01T07:35:45;8.43;;;4.40;;
12332;SDS011;6232;48.094;11.288;2023-02-01T07:38:30;5.17;;;3.80;;
12332;SDS011;6232;48.094;11.288;2023-02-01T07:41:16;9.00;;;4.03;;
12332;SDS011;6232;48.094;11.288;2023-02-01T07:44:01;7.80;;;3.30;;
12332;SDS011;6232;48.094;11.288;2023-02-01T07:46:48;6.43;;;3.30;;
12332;SDS011;6232;48.094;11.288;2023-02-01T07:49:33;4.07;;;3.67;;
12332;SDS011;6232;48.094;11.288;2023-02-01T07:52:19;4.53;;;2.70;;
12332;SDS011;6232;48.094;11.288;2023-02-01T07:55:04;4.43;;;3.50;;
12332;SDS011;6232;48.094;11.288;2023-02-01T07:57:50;4.10;;;3.50;;
12332;SDS011;6232;48.094;11.288;2023-02-01T08:00:35;4.30;;;3.40;;
12332;SDS011;6232;48.094;11.288;2023-02-01T08:03:40;4.73;;;3.53;;
12332;SDS011;6232;48.094;11.288;2023-02-01T08:06:26;2.83;;;2.63;;
12332;SDS011;6232;48.094;11.288;2023-02-01T08:09:12;3.40;;;3.20;;
12332;SDS011;6232;48.094;11.288;2023-02-01T08:11:57;9.27;;;3.83;;
12332;SDS011;6232;48.094;11.288;2023-02-01T08:14:43;5.10;;;3.63;;
12332;SDS011;6232;48.094;11.288;2023-02-01T08:17:28;8.50;;;3.10;;
12332;SDS011;6232;48.094;11.288;2023-02-01T08:20:14;3.70;;;2.77;;
12332;SDS011;6232;48.094;11.288;2023-02-01T08:23:00;4.40;;;3.20;;
12332;SDS011;6232;48.094;11.288;2023-02-01T08:25:45;10.70;;;2.57;;
12332;SDS011;6232;48.094;11.288;2023-02-01T08:28:31;5.40;;;3.43;;
12332;SDS011;6232;48.094;11.288;2023-02-01T08:31:18;3.10;;;2.87;;
12332;SDS011;6232;48.094;11.288;2023-02-01T08:34:03;5.37;;;3.17;;
12332;SDS011;6232;48.094;11.288;2023-02-01T08:36:49;5.73;;;2.97;;
12332;SDS011;6232;48.094;11.288;2023-02-01T08:39:37;3.70;;;3.30;;
12332;SDS011;6232;48.094;11.288;2023-02-01T08:42:22;3.87;;;3.47;;
12332;SDS011;6232;48.094;11.288;2023-02-01T08:45:27;4.33;;;3.90;;
12332;SDS011;6232;48.094;11.288;2023-02-01T08:48:14;3.00;;;2.73;;
12332;SDS011;6232;48.094;11.288;2023-02-01T08:51:04;3.67;;;3.13;;
12332;SDS011;6232;48.094;11.288;2023-02-01T08:53:50;5.03;;;3.00;;
12332;SDS011;6232;48.094;11.288;2023-02-01T08:56:35;5.23;;;3.83;;
12332;SDS011;6232;48.094;11.288;2023-02-01T08:59:21;4.63;;;2.80;;
12332;SDS011;6232;48.094;11.288;2023-02-01T09:02:08;5.13;;;3.47;;
12332;SDS011;6232;48.094;11.288;2023-02-01T09:04:55;4.23;;;2.90;;
12332;SDS011;6232;48.094;11.288;2023-02-01T09:07:41;7.93;;;3.30;;
12332;SDS011;6232;48.094;11.288;2023-02-01T09:10:27;3.87;;;3.53;;
12332;SDS011;6232;48.094;11.288;2023-02-01T09:13:15;5.10;;;3.67;;
12332;SDS011;6232;48.094;11.288;2023-02-01T09:16:01;4.33;;;3.80;;
12332;SDS011;6232;48.094;11.288;2023-02-01T09:18:46;3.40;;;3.10;;
12332;SDS011;6232;48.094;11.288;2023-02-01T09:21:32;3.57;;;2.97;;
12332;SDS011;6232;48.094;11.288;2023-02-01T09:24:18;7.20;;;2.90;;
12332;SDS011;6232;48.094;11.288;2023-02-01T09:27:03;4.00;;;3.00;;
12332;SDS011;6232;48.094;11.288;2023-02-01T09:29:49;2.70;;;2.50;;
12332;SDS011;6232;48.094;11.288;2023-02-01T09:32:37;3.43;;;3.10;;
12332;SDS011;6232;48.094;11.288;2023-02-01T09:35:23;3.37;;;3.07;;
12332;SDS011;6232;48.094;11.288;2023-02-01T09:38:08;3.63;;;3.30;;
12332;SDS011;6232;48.094;11.288;2023-02-01T09:40:54;5.83;;;3.10;;
12332;SDS011;6232;48.094;11.288;2023-02-01T09:43:48;3.40;;;3.10;;
12332;SDS011;6232;48.094;11.288;2023-02-01T09:46:35;5.60;;;3.20;;
12332;SDS011;6232;48.094;11.288;2023-02-01T09:49:34;3.20;;;3.00;;
12332;SDS011;6232;48.094;11.288;2023-02-01T09:53:04;4.17;;;3.40;;
12332;SDS011;6232;48.094;11.288;2023-02-01T09:58:30;4.33;;;3.30;;
12332;SDS011;6232;48.094;11.288;2023-02-01T10:01:19;5.37;;;4.10;;
12332;SDS011;6232;48.094;11.288;2023-02-01T10:04:07;3.97;;;3.60;;
12332;SDS011;6232;48.094;11.288;2023-02-01T10:06:57;3.73;;;3.43;;
12332;SDS011;6232;48.094;11.288;2023-02-01T10:26:55;3.63;;;3.33;;
12332;SDS011;6232;48.094;11.288;2023-02-01T10:29:44;4.57;;;3.20;;
12332;SDS011;6232;48.094;11.288;2023-02-01T10:32:32;4.60;;;4.10;;
12332;SDS011;6232;48.094;11.288;2023-02-01T10:35:22;4.40;;;3.73;;
12332;SDS011;6232;48.094;11.288;2023-02-01T10:38:14;3.63;;;3.33;;
12332;SDS011;6232;48.094;11.288;2023-02-01T10:41:23;5.07;;;3.90;;
12332;SDS011;6232;48.094;11.288;2023-02-01T10:44:12;5.37;;;3.70;;
12332;SDS011;6232;48.094;11.288;2023-02-01T10:46:59;4.60;;;4.00;;
12332;SDS011;6232;48.094;11.288;2023-02-01T10:49:58;7.93;;;3.67;;
12332;SDS011;6232;48.094;11.288;2023-02-01T10:56:11;4.63;;;3.73;;
12332;SDS011;6232;48.094;11.288;2023-02-01T10:59:04;3.50;;;3.10;;
12332;SDS011;6232;48.094;11.288;2023-02-01T11:01:51;3.87;;;3.50;;
12332;SDS011;6232;48.094;11.288;2023-02-01T11:04:42;8.60;;;4.00;;
12332;SDS011;6232;48.094;11.288;2023-02-01T11:07:28;3.77;;;3.43;;
12332;SDS011;6232;48.094;11.288;2023-02-01T11:13:18;12.60;;;3.70;;
12332;SDS011;6232;48.094;11.288;2023-02-01T11:16:04;6.53;;;4.00;;
12332;SDS011;6232;48.094;11.288;2023-02-01T11:18:53;4.00;;;3.17;;
12332;SDS011;6232;48.094;11.288;2023-02-01T11:21:39;4.87;;;3.20;;
12332;SDS011;6232;48.094;11.288;2023-02-01T11:24:31;4.40;;;3.77;;
12332;SDS011;6232;48.094;11.288;2023-02-01T11:27:19;4.00;;;3.10;;
12332;SDS011;6232;48.094;11.288;2023-02-01T11:30:05;18.27;;;4.30;;
12332;SDS011;6232;48.094;11.288;2023-02-01T11:32:51;3.63;;;3.33;;
12332;SDS011;6232;48.094;11.288;2023-02-01T11:35:37;4.03;;;3.60;;
12332;SDS011;6232;48.094;11.288;2023-02-01T11:38:28;4.60;;;3.90;;
12332;SDS011;6232;48.094;11.288;2023-02-01T11:41:18;6.77;;;4.00;;
12332;SDS011;6232;48.094;11.288;2023-02-01T11:44:15;3.87;;;3.30;;
12332;SDS011;6232;48.094;11.288;2023-02-01T11:47:18;7.13;;;3.80;;
12332;SDS011;6232;48.094;11.288;2023-02-01T11:50:08;4.23;;;3.93;;
12332;SDS011;6232;48.094;11.288;2023-02-01T11:53:02;4.77;;;3.93;;
12332;SDS011;6232;48.094;11.288;2023-02-01T11:55:55;4.83;;;4.20;;
12332;SDS011;6232;48.094;11.288;2023-02-01T12:01:44;4.90;;;3.63;;
12332;SDS011;6232;48.094;11.288;2023-02-01T12:10:44;5.53;;;4.03;;
12332;SDS011;6232;48.094;11.288;2023-02-01T12:19:33;5.50;;;3.70;;
12332;SDS011;6232;48.094;11.288;2023-02-01T12:25:14;4.60;;;3.63;;
12332;SDS011;6232;48.094;11.288;2023-02-01T12:30:58;12.73;;;3.40;;
12332;SDS011;6232;48.094;11.288;2023-02-01T12:36:50;3.80;;;3.07;;
12332;SDS011;6232;48.094;11.288;2023-02-01T12:39:41;6.13;;;3.80;;
12332;SDS011;6232;48.094;11.288;2023-02-01T12:42:36;4.17;;;3.53;;
12332;SDS011;6232;48.094;11.288;2023-02-01T12:48:23;6.70;;;4.97;;
12332;SDS011;6232;48.094;11.288;2023-02-01T12:51:15;3.67;;;3.33;;
12332;SDS011;6232;48.094;11.288;2023-02-01T12:54:19;6.37;;;3.70;;
12332;SDS011;6232;48.094;11.288;2023-02-01T12:57:08;4.60;;;3.30;;
12332;SDS011;6232;48.094;11.288;2023-02-01T13:03:01;4.70;;;3.73;;
12332;SDS011;6232;48.094;11.288;2023-02-01T13:11:39;9.63;;;4.50;;
12332;SDS011;6232;48.094;11.288;2023-02-01T13:17:27;5.40;;;3.20;;
12332;SDS011;6232;48.094;11.288;2023-02-01T13:20:22;7.43;;;3.57;;
12332;SDS011;6232;48.094;11.288;2023-02-01T13:23:23;5.93;;;3.70;;
12332;SDS011;6232;48.094;11.288;2023-02-01T13:26:10;3.40;;;3.20;;
12332;SDS011;6232;48.094;11.288;2023-02-01T13:29:05;4.70;;;3.13;;
12332;SDS011;6232;48.094;11.288;2023-02-01T13:38:00;3.37;;;3.07;;
12332;SDS011;6232;48.094;11.288;2023-02-01T13:44:05;5.57;;;3.47;;
12332;SDS011;6232;48.094;11.288;2023-02-01T13:46:54;4.30;;;3.20;;
12332;SDS011;6232;48.094;11.288;2023-02-01T13:49:41;6.67;;;3.57;;
12332;SDS011;6232;48.094;11.288;2023-02-01T13:52:29;4.60;;;3.30;;
12332;SDS011;6232;48.094;11.288;2023-02-01T13:55:23;4.10;;;3.00;;
12332;SDS011;6232;48.094;11.288;2023-02-01T13:58:28;2.87;;;2.67;;
12332;SDS011;6232;48.094;11.288;2023-02-01T14:04:06;3.23;;;2.93;;
12332;SDS011;6232;48.094;11.288;2023-02-01T14:07:17;8.67;;;3.20;;
12332;SDS011;6232;48.094;11.288;2023-02-01T14:18:58;3.20;;;2.90;;
12332;SDS011;6232;48.094;11.288;2023-02-01T14:21:51;4.93;;;2.63;;
12332;SDS011;6232;48.094;11.288;2023-02-01T14:24:42;4.77;;;3.50;;
12332;SDS011;6232;48.094;11.288;2023-02-01T14:27:35;3.33;;;3.03;;
12332;SDS011;6232;48.094;11.288;2023-02-01T14:30:21;6.53;;;3.10;;
12332;SDS011;6232;48.094;11.288;2023-02-01T14:33:18;3.63;;;2.17;;
12332;SDS011;6232;48.094;11.288;2023-02-01T14:36:10;4.30;;;2.53;;
12332;SDS011;6232;48.094;11.288;2023-02-01T14:38:57;6.03;;;2.53;;
12332;SDS011;6232;48.094;11.288;2023-02-01T14:41:42;3.23;;;2.93;;
12332;SDS011;6232;48.094;11.288;2023-02-01T14:44:30;7.83;;;2.80;;
12332;SDS011;6232;48.094;11.288;2023-02-01T14:58:50;5.53;;;3.27;;
12332;SDS011;6232;48.094;11.288;2023-02-01T15:01:38;3.47;;;2.57;;
12332;SDS011;6232;48.094;11.288;2023-02-01T15:04:25;8.33;;;3.63;;
12332;SDS011;6232;48.094;11.288;2023-02-01T15:07:11;6.37;;;2.77;;
12332;SDS011;6232;48.094;11.288;2023-02-01T15:09:58;4.80;;;2.20;;
12332;SDS011;6232;48.094;11.288;2023-02-01T15:12:45;6.90;;;2.53;;
12332;SDS011;6232;48.094;11.288;2023-02-01T15:15:33;5.20;;;3.00;;
12332;SDS011;6232;48.094;11.288;2023-02-01T15:18:21;12.47;;;2.77;;
12332;SDS011;6232;48.094;11.288;2023-02-01T15:21:18;4.93;;;3.50;;
12332;SDS011;6232;48.094;11.288;2023-02-01T15:24:09;3.70;;;2.70;;
12332;SDS011;6232;48.094;11.288;2023-02-01T15:26:56;2.70;;;2.50;;
12332;SDS011;6232;48.094;11.288;2023-02-01T15:29:47;2.90;;;2.60;;
12332;SDS011;6232;48.094;11.288;2023-02-01T15:32:41;6.07;;;4.33;;
12332;SDS011;6232;48.094;11.288;2023-02-01T15:35:34;5.07;;;3.53;;
12332;SDS011;6232;48.094;11.288;2023-02-01T15:46:39;4.63;;;3.63;;
12332;SDS011;6232;48.094;11.288;2023-02-01T15:49:26;3.20;;;2.90;;
12332;SDS011;6232;48.094;11.288;2023-02-01T15:52:20;5.70;;;2.63;;
12332;SDS011;6232;48.094;11.288;2023-02-01T15:55:29;4.30;;;2.93;;
12332;SDS011;6232;48.094;11.288;2023-02-01T15:58:19;3.70;;;2.33;;
12332;SDS011;6232;48.094;11.288;2023-02-01T16:01:05;6.43;;;1.90;;
12332;SDS011;6232;48.094;11.288;2023-02-01T16:04:10;3.13;;;1.90;;
12332;SDS011;6232;48.094;11.288;2023-02-01T16:07:01;1.93;;;1.80;;
12332;SDS011;6232;48.094;11.288;2023-02-01T16:09:52;2.57;;;2.37;;
12332;SDS011;6232;48.094;11.288;2023-02-01T16:15:26;3.43;;;2.57;;
12332;SDS011;6232;48.094;11.288;2023-02-01T16:18:15;5.77;;;2.67;;
12332;SDS011;6232;48.094;11.288;2023-02-01T16:21:00;2.90;;;2.43;;
12332;SDS011;6232;48.094;11.288;2023-02-01T16:23:48;6.93;;;2.90;;
12332;SDS011;6232;48.094;11.288;2023-02-01T16:26:34;4.50;;;2.70;;
12332;SDS011;6232;48.094;11.288;2023-02-01T16:29:19;4.20;;;2.73;;
12332;SDS011;6232;48.094;11.288;2023-02-01T16:32:11;3.07;;;2.77;;
12332;SDS011;6232;48.094;11.288;2023-02-01T16:34:59;8.53;;;2.83;;
12332;SDS011;6232;48.094;11.288;2023-02-01T16:37:45;9.13;;;2.97;;
12332;SDS011;6232;48.094;11.288;2023-02-01T16:40:31;3.63;;;3.33;;
12332;SDS011;6232;48.094;11.288;2023-02-01T16:46:02;6.20;;;2.87;;
12332;SDS011;6232;48.094;11.288;2023-02-01T16:48:51;8.47;;;4.10;;
12332;SDS011;6232;48.094;11.288;2023-02-01T16:51:37;2.77;;;2.57;;
12332;SDS011;6232;48.094;11.288;2023-02-01T16:54:25;6.30;;;2.70;;
12332;SDS011;6232;48.094;11.288;2023-02-01T16:57:12;5.90;;;2.83;;
12332;SDS011;6232;48.094;11.288;2023-02-01T16:59:59;7.27;;;2.87;;
12332;SDS011;6232;48.094;11.288;2023-02-01T17:02:49;3.30;;;3.00;;
12332;SDS011;6232;48.094;11.288;2023-02-01T17:05:35;5.57;;;2.63;;
12332;SDS011;6232;48.094;11.288;2023-02-01T17:08:24;2.23;;;2.07;;
12332;SDS011;6232;48.094;11.288;2023-02-01T17:11:12;7.70;;;2.37;;
12332;SDS011;6232;48.094;11.288;2023-02-01T17:16:59;11.33;;;3.10;;
12332;SDS011;6232;48.094;11.288;2023-02-01T17:19:45;3.93;;;2.47;;
12332;SDS011;6232;48.094;11.288;2023-02-01T17:22:32;2.27;;;2.07;;
12332;SDS011;6232;48.094;11.288;2023-02-01T17:25:18;11.37;;;2.30;;
12332;SDS011;6232;48.094;11.288;2023-02-01T17:28:04;7.10;;;2.50;;
12332;SDS011;6232;48.094;11.288;2023-02-01T17:30:49;5.80;;;2.30;;
12332;SDS011;6232;48.094;11.288;2023-02-01T17:33:35;14.07;;;3.70;;
12332;SDS011;6232;48.094;11.288;2023-02-01T17:36:21;5.10;;;2.37;;
12332;SDS011;6232;48.094;11.288;2023-02-01T17:39:07;6.93;;;2.83;;
12332;SDS011;6232;48.094;11.288;2023-02-01T17:41:52;2.90;;;1.70;;
12332;SDS011;6232;48.094;11.288;2023-02-01T17:44:38;4.37;;;2.33;;
12332;SDS011;6232;48.094;11.288;2023-02-01T17:47:24;4.67;;;2.30;;
12332;SDS011;6232;48.094;11.288;2023-02-01T17:50:09;1.70;;;1.50;;
12332;SDS011;6232;48.094;11.288;2023-02-01T17:52:55;9.10;;;2.87;;
12332;SDS011;6232;48.094;11.288;2023-02-01T17:55:42;5.90;;;2.50;;
12332;SDS011;6232;48.094;11.288;2023-02-01T17:58:28;11.17;;;2.90;;
12332;SDS011;6232;48.094;11.288;2023-02-01T18:01:19;2.67;;;2.20;;
12332;SDS011;6232;48.094;11.288;2023-02-01T18:04:05;2.80;;;1.90;;
12332;SDS011;6232;48.094;11.288;2023-02-01T18:06:51;12.43;;;2.80;;
12332;SDS011;6232;48.094;11.288;2023-02-01T18:09:37;6.70;;;2.77;;
12332;SDS011;6232;48.094;11.288;2023-02-01T18:12:22;5.10;;;3.00;;
12332;SDS011;6232;48.094;11.288;2023-02-01T18:15:19;4.20;;;2.03;;
12332;SDS011;6232;48.094;11.288;2023-02-01T18:18:05;4.70;;;3.00;;
12332;SDS011;6232;48.094;11.288;2023-02-01T18:20:51;3.40;;;2.40;;
12332;SDS011;6232;48.094;11.288;2023-02-01T18:23:36;6.57;;;3.10;;
12332;SDS011;6232;48.094;11.288;2023-02-01T18:26:22;8.50;;;2.70;;
12332;SDS011;6232;48.094;11.288;2023-02-01T18:29:07;3.30;;;3.00;;
12332;SDS011;6232;48.094;11.288;2023-02-01T18:31:54;2.90;;;2.10;;
12332;SDS011;6232;48.094;11.288;2023-02-01T18:34:40;4.47;;;2.40;;
12332;SDS011;6232;48.094;11.288;2023-02-01T18:37:25;3.33;;;2.07;;
12332;SDS011;6232;48.094;11.288;2023-02-01T18:40:15;2.90;;;1.87;;
12332;SDS011;6232;48.094;11.288;2023-02-01T18:43:01;5.53;;;2.60;;
12332;SDS011;6232;48.094;11.288;2023-02-01T18:45:46;8.90;;;2.73;;
12332;SDS011;6232;48.094;11.288;2023-02-01T18:48:32;8.20;;;1.90;;
12332;SDS011;6232;48.094;11.288;2023-02-01T18:51:18;5.33;;;2.70;;
12332;SDS011;6232;48.094;11.288;2023-02-01T18:54:04;2.60;;;2.30;;
12332;SDS011;6232;48.094;11.288;2023-02-01T18:56:50;8.67;;;3.40;;
12332;SDS011;6232;48.094;11.288;2023-02-01T18:59:36;5.03;;;2.37;;
12332;SDS011;6232;48.094;11.288;2023-02-01T19:02:22;6.70;;;3.03;;
12332;SDS011;6232;48.094;11.288;2023-02-01T19:05:08;4.80;;;2.63;;
12332;SDS011;6232;48.094;11.288;2023-02-01T19:07:54;4.87;;;2.10;;
12332;SDS011;6232;48.094;11.288;2023-02-01T19:10:42;9.23;;;2.60;;
12332;SDS011;6232;48.094;11.288;2023-02-01T19:13:28;5.03;;;2.90;;
12332;SDS011;6232;48.094;11.288;2023-02-01T19:16:15;3.20;;;1.90;;